sensor_id;sensor_type;location;lat;lon;timestamp;temperature;humidity
4604;DHT22;2314;48.272;11.562;2023-02-01T00:02:24;3.60;99.90
4604;DHT22;2314;48.272;11.562;2023-02-01T00:04:51;3.60;99.90
4604;DHT22;2314;48.272;11.562;2023-02-01T00:07:20;3.60;99.90
4604;DHT22;2314;48.272;11.562;2023-02-01T00:09:47;3.60;99.90
4604;DHT22;2314;48.272;11.562;2023-02-01T00:12:14;3.60;99.90
4604;DHT22;2314;48.272;11.562;2023-02-01T00:14:41;3.60;99.90
4604;DHT22;2314;48.272;11.562;2023-02-01T00:17:08;3.60;99.90
4604;DHT22;2314;48.272;11.562;2023-02-01T00:19:35;3.60;99.90
4604;DHT22;2314;48.272;11.562;2023-02-01T00:22:02;3.60;99.90
4604;DHT22;2314;48.272;11.562;2023-02-01T00:24:31;3.60;99.90
4604;DHT22;2314;48.272;11.562;2023-02-01T00:26:58;3.60;99.90
4604;DHT22;2314;48.272;11.562;2023-02-01T00:29:25;3.60;99.90
4604;DHT22;2314;48.272;11.562;2023-02-01T00:31:52;3.60;99.90
4604;DHT22;2314;48.272;11.562;2023-02-01T00:34:19;3.50;99.90
4604;DHT22;2314;48.272;11.562;2023-02-01T00:36:48;3.50;99.90
4604;DHT22;2314;48.272;11.562;2023-02-01T00:39:16;3.50;99.90
4604;DHT22;2314;48.272;11.562;2023-02-01T00:41:44;3.40;99.90
4604;DHT22;2314;48.272;11.562;2023-02-01T00:44:11;3.40;99.90
4604;DHT22;2314;48.272;11.562;2023-02-01T00:46:38;3.40;99.90
4604;DHT22;2314;48.272;11.562;2023-02-01T00:49:05;3.40;99.90
4604;DHT22;2314;48.272;11.562;2023-02-01T00:51:34;3.40;99.90
4604;DHT22;2314;48.272;11.562;2023-02-01T00:54:02;3.30;99.90
4604;DHT22;2314;48.272;11.562;2023-02-01T00:56:29;3.30;99.90
4604;DHT22;2314;48.272;11.562;2023-02-01T00:58:57;3.30;99.90
4604;DHT22;2314;48.272;11.562;2023-02-01T01:01:26;3.20;99.90
4604;DHT22;2314;48.272;11.562;2023-02-01T01:03:55;3.20;99.90
4604;DHT22;2314;48.272;11.562;2023-02-01T01:06:25;3.10;99.90
4604;DHT22;2314;48.272;11.562;2023-02-01T01:08:54;3.10;99.90
4604;DHT22;2314;48.272;11.562;2023-02-01T01:11:24;3.10;99.90
4604;DHT22;2314;48.272;11.562;2023-02-01T01:13:53;3.10;99.90
4604;DHT22;2314;48.272;11.562;2023-02-01T01:16:25;3.00;99.90
4604;DHT22;2314;48.272;11.562;2023-02-01T01:18:53;3.00;99.90
4604;DHT22;2314;48.272;11.562;2023-02-01T01:21:20;3.00;99.90
4604;DHT22;2314;48.272;11.562;2023-02-01T01:23:47;2.90;99.90
4604;DHT22;2314;48.272;11.562;2023-02-01T01:26:16;2.90;99.90
4604;DHT22;2314;48.272;11.562;2023-02-01T01:28:45;2.90;99.90
4604;DHT22;2314;48.272;11.562;2023-02-01T01:31:14;2.90;99.90
4604;DHT22;2314;48.272;11.562;2023-02-01T01:33:43;2.90;99.90
4604;DHT22;2314;48.272;11.562;2023-02-01T01:36:12;2.90;99.90
4604;DHT22;2314;48.272;11.562;2023-02-01T01:38:39;2.90;99.90
4604;DHT22;2314;48.272;11.562;2023-02-01T01:41:07;2.90;99.90
4604;DHT22;2314;48.272;11.562;2023-02-01T01:43:52;2.90;99.90
4604;DHT22;2314;48.272;11.562;2023-02-01T01:46:25;2.90;99.90
4604;DHT22;2314;48.272;11.562;2023-02-01T01:49:00;2.90;99.90
4604;DHT22;2314;48.272;11.562;2023-02-01T01:51:31;2.90;99.90
4604;DHT22;2314;48.272;11.562;2023-02-01T01:54:04;2.90;99.90
4604;DHT22;2314;48.272;11.562;2023-02-01T01:56:34;2.90;99.90
4604;DHT22;2314;48.272;11.562;2023-02-01T01:59:02;2.90;99.90
4604;DHT22;2314;48.272;11.562;2023-02-01T02:01:31;2.80;99.90
4604;DHT22;2314;48.272;11.562;2023-02-01T02:04:00;2.70;99.90
4604;DHT22;2314;48.272;11.562;2023-02-01T02:06:37;2.70;99.90
4604;DHT22;2314;48.272;11.562;2023-02-01T02:09:07;2.70;99.90
4604;DHT22;2314;48.272;11.562;2023-02-01T02:11:34;2.70;99.90
4604;DHT22;2314;48.272;11.562;2023-02-01T02:14:04;2.70;99.90
4604;DHT22;2314;48.272;11.562;2023-02-01T02:16:52;2.70;99.90
4604;DHT22;2314;48.272;11.562;2023-02-01T02:20:02;2.80;99.90
4604;DHT22;2314;48.272;11.562;2023-02-01T02:29:24;2.80;99.90
4604;DHT22;2314;48.272;11.562;2023-02-01T02:32:31;2.80;99.90
4604;DHT22;2314;48.272;11.562;2023-02-01T02:35:12;2.90;99.90
4604;DHT22;2314;48.272;11.562;2023-02-01T02:37:50;2.90;99.90
4604;DHT22;2314;48.272;11.562;2023-02-01T02:40:27;2.90;99.90
4604;DHT22;2314;48.272;11.562;2023-02-01T02:43:04;2.90;99.90
4604;DHT22;2314;48.272;11.562;2023-02-01T02:45:57;2.90;99.90
4604;DHT22;2314;48.272;11.562;2023-02-01T02:48:50;2.90;99.90
4604;DHT22;2314;48.272;11.562;2023-02-01T02:51:23;2.90;99.90
4604;DHT22;2314;48.272;11.562;2023-02-01T02:54:13;2.80;99.90
4604;DHT22;2314;48.272;11.562;2023-02-01T02:57:02;2.80;99.90
4604;DHT22;2314;48.272;11.562;2023-02-01T02:59:49;2.80;99.90
4604;DHT22;2314;48.272;11.562;2023-02-01T03:02:34;2.80;99.90
4604;DHT22;2314;48.272;11.562;2023-02-01T03:05:19;2.80;99.90
4604;DHT22;2314;48.272;11.562;2023-02-01T03:07:57;2.80;99.90
4604;DHT22;2314;48.272;11.562;2023-02-01T03:10:35;2.80;99.90
4604;DHT22;2314;48.272;11.562;2023-02-01T03:13:11;2.70;99.90
4604;DHT22;2314;48.272;11.562;2023-02-01T03:15:45;2.70;99.90
4604;DHT22;2314;48.272;11.562;2023-02-01T03:18:21;2.70;99.90
4604;DHT22;2314;48.272;11.562;2023-02-01T03:20:53;2.70;99.90
4604;DHT22;2314;48.272;11.562;2023-02-01T03:23:27;2.70;99.90
4604;DHT22;2314;48.272;11.562;2023-02-01T03:26:01;2.70;99.90
4604;DHT22;2314;48.272;11.562;2023-02-01T03:28:30;2.70;99.90
4604;DHT22;2314;48.272;11.562;2023-02-01T03:30:59;2.70;99.90
4604;DHT22;2314;48.272;11.562;2023-02-01T03:33:27;2.70;99.90
4604;DHT22;2314;48.272;11.562;2023-02-01T03:36:00;2.70;99.90
4604;DHT22;2314;48.272;11.562;2023-02-01T03:38:37;2.70;99.90
4604;DHT22;2314;48.272;11.562;2023-02-01T03:41:10;2.70;99.90
4604;DHT22;2314;48.272;11.562;2023-02-01T03:43:47;2.70;99.90
4604;DHT22;2314;48.272;11.562;2023-02-01T03:46:25;2.70;99.90
4604;DHT22;2314;48.272;11.562;2023-02-01T03:49:00;2.70;99.90
4604;DHT22;2314;48.272;11.562;2023-02-01T03:51:29;2.80;99.90
4604;DHT22;2314;48.272;11.562;2023-02-01T03:53:59;2.70;99.90
4604;DHT22;2314;48.272;11.562;2023-02-01T03:56:29;2.80;99.90
4604;DHT22;2314;48.272;11.562;2023-02-01T03:58:58;2.80;99.90
4604;DHT22;2314;48.272;11.562;2023-02-01T04:01:26;2.80;99.90
4604;DHT22;2314;48.272;11.562;2023-02-01T04:03:55;2.80;99.90
4604;DHT22;2314;48.272;11.562;2023-02-01T04:06:23;2.70;99.90
4604;DHT22;2314;48.272;11.562;2023-02-01T04:08:51;2.80;99.90
4604;DHT22;2314;48.272;11.562;2023-02-01T04:11:20;2.80;99.90
4604;DHT22;2314;48.272;11.562;2023-02-01T04:13:46;2.80;99.90
4604;DHT22;2314;48.272;11.562;2023-02-01T04:16:14;2.80;99.90
4604;DHT22;2314;48.272;11.562;2023-02-01T04:18:41;2.90;99.90
4604;DHT22;2314;48.272;11.562;2023-02-01T04:21:08;2.90;99.90
4604;DHT22;2314;48.272;11.562;2023-02-01T04:23:35;2.90;99.90
4604;DHT22;2314;48.272;11.562;2023-02-01T04:26:04;2.90;99.90
4604;DHT22;2314;48.272;11.562;2023-02-01T04:28:32;2.90;99.90
4604;DHT22;2314;48.272;11.562;2023-02-01T04:30:59;2.90;99.90
4604;DHT22;2314;48.272;11.562;2023-02-01T04:33:26;2.90;99.90
4604;DHT22;2314;48.272;11.562;2023-02-01T04:35:53;2.90;99.90
4604;DHT22;2314;48.272;11.562;2023-02-01T04:38:21;2.90;99.90
4604;DHT22;2314;48.272;11.562;2023-02-01T04:40:48;2.90;99.90
4604;DHT22;2314;48.272;11.562;2023-02-01T04:43:15;2.90;99.90
4604;DHT22;2314;48.272;11.562;2023-02-01T04:45:48;2.90;99.90
4604;DHT22;2314;48.272;11.562;2023-02-01T04:48:16;3.00;99.90
4604;DHT22;2314;48.272;11.562;2023-02-01T04:50:45;3.00;99.90
4604;DHT22;2314;48.272;11.562;2023-02-01T04:53:13;3.00;99.90
4604;DHT22;2314;48.272;11.562;2023-02-01T04:55:40;3.00;99.90
4604;DHT22;2314;48.272;11.562;2023-02-01T04:58:08;3.10;99.90
4604;DHT22;2314;48.272;11.562;2023-02-01T05:00:35;3.10;99.90
4604;DHT22;2314;48.272;11.562;2023-02-01T05:03:04;3.10;99.90
4604;DHT22;2314;48.272;11.562;2023-02-01T05:05:31;3.20;99.90
4604;DHT22;2314;48.272;11.562;2023-02-01T05:07:58;3.20;99.90
4604;DHT22;2314;48.272;11.562;2023-02-01T05:10:25;3.20;99.90
4604;DHT22;2314;48.272;11.562;2023-02-01T05:12:52;3.20;99.90
4604;DHT22;2314;48.272;11.562;2023-02-01T05:15:37;3.20;99.90
4604;DHT22;2314;48.272;11.562;2023-02-01T05:18:05;3.20;99.90
4604;DHT22;2314;48.272;11.562;2023-02-01T05:20:32;3.30;99.90
4604;DHT22;2314;48.272;11.562;2023-02-01T05:22:59;3.30;99.90
4604;DHT22;2314;48.272;11.562;2023-02-01T05:25:29;3.30;99.90
4604;DHT22;2314;48.272;11.562;2023-02-01T05:27:56;3.30;99.90
4604;DHT22;2314;48.272;11.562;2023-02-01T05:30:23;3.30;99.90
4604;DHT22;2314;48.272;11.562;2023-02-01T05:32:50;3.30;99.90
4604;DHT22;2314;48.272;11.562;2023-02-01T05:35:19;3.30;99.90
4604;DHT22;2314;48.272;11.562;2023-02-01T05:37:46;3.30;99.90
4604;DHT22;2314;48.272;11.562;2023-02-01T05:40:13;3.30;99.90
4604;DHT22;2314;48.272;11.562;2023-02-01T05:42:40;3.30;99.90
4604;DHT22;2314;48.272;11.562;2023-02-01T05:45:08;3.20;99.90
4604;DHT22;2314;48.272;11.562;2023-02-01T05:47:36;3.30;99.90
4604;DHT22;2314;48.272;11.562;2023-02-01T05:50:04;3.20;99.90
4604;DHT22;2314;48.272;11.562;2023-02-01T05:52:33;3.20;99.90
4604;DHT22;2314;48.272;11.562;2023-02-01T05:55:00;3.20;99.90
4604;DHT22;2314;48.272;11.562;2023-02-01T05:57:27;3.20;99.90
4604;DHT22;2314;48.272;11.562;2023-02-01T05:59:54;3.30;99.90
4604;DHT22;2314;48.272;11.562;2023-02-01T06:02:21;3.20;99.90
4604;DHT22;2314;48.272;11.562;2023-02-01T06:04:49;3.20;99.90
4604;DHT22;2314;48.272;11.562;2023-02-01T06:07:16;3.20;99.90
4604;DHT22;2314;48.272;11.562;2023-02-01T06:09:45;3.20;99.90
4604;DHT22;2314;48.272;11.562;2023-02-01T06:12:12;3.30;99.90
4604;DHT22;2314;48.272;11.562;2023-02-01T06:14:39;3.30;99.90
4604;DHT22;2314;48.272;11.562;2023-02-01T06:17:08;3.30;99.90
4604;DHT22;2314;48.272;11.562;2023-02-01T06:19:35;3.30;99.90
4604;DHT22;2314;48.272;11.562;2023-02-01T06:22:02;3.30;99.90
4604;DHT22;2314;48.272;11.562;2023-02-01T06:24:31;3.30;99.90
4604;DHT22;2314;48.272;11.562;2023-02-01T06:27:00;3.40;99.90
4604;DHT22;2314;48.272;11.562;2023-02-01T06:29:27;3.40;99.90
4604;DHT22;2314;48.272;11.562;2023-02-01T06:31:54;3.40;99.90
4604;DHT22;2314;48.272;11.562;2023-02-01T06:34:21;3.40;99.90
4604;DHT22;2314;48.272;11.562;2023-02-01T06:36:49;3.40;99.90
4604;DHT22;2314;48.272;11.562;2023-02-01T06:39:16;3.40;99.90
4604;DHT22;2314;48.272;11.562;2023-02-01T06:41:45;3.40;99.90
4604;DHT22;2314;48.272;11.562;2023-02-01T06:44:14;3.40;99.90
4604;DHT22;2314;48.272;11.562;2023-02-01T06:46:41;3.40;99.90
4604;DHT22;2314;48.272;11.562;2023-02-01T06:49:08;3.40;99.90
4604;DHT22;2314;48.272;11.562;2023-02-01T06:51:35;3.40;99.90
4604;DHT22;2314;48.272;11.562;2023-02-01T06:54:03;3.40;99.90
4604;DHT22;2314;48.272;11.562;2023-02-01T06:56:30;3.30;99.90
4604;DHT22;2314;48.272;11.562;2023-02-01T06:58:57;3.40;99.90
4604;DHT22;2314;48.272;11.562;2023-02-01T07:01:27;3.40;99.90
4604;DHT22;2314;48.272;11.562;2023-02-01T07:03:54;3.50;99.90
4604;DHT22;2314;48.272;11.562;2023-02-01T07:06:21;3.50;99.90
4604;DHT22;2314;48.272;11.562;2023-02-01T07:08:48;3.50;99.90
4604;DHT22;2314;48.272;11.562;2023-02-01T07:11:17;3.60;99.90
4604;DHT22;2314;48.272;11.562;2023-02-01T07:13:45;3.60;99.90
4604;DHT22;2314;48.272;11.562;2023-02-01T07:16:14;3.60;99.90
4604;DHT22;2314;48.272;11.562;2023-02-01T07:18:43;3.60;99.90
4604;DHT22;2314;48.272;11.562;2023-02-01T07:21:11;3.60;99.90
4604;DHT22;2314;48.272;11.562;2023-02-01T07:23:38;3.60;99.90
4604;DHT22;2314;48.272;11.562;2023-02-01T07:26:07;3.60;99.90
4604;DHT22;2314;48.272;11.562;2023-02-01T07:28:35;3.70;99.90
4604;DHT22;2314;48.272;11.562;2023-02-01T07:31:03;3.70;99.90
4604;DHT22;2314;48.272;11.562;2023-02-01T07:33:31;3.70;99.90
4604;DHT22;2314;48.272;11.562;2023-02-01T07:36:01;3.80;99.90
4604;DHT22;2314;48.272;11.562;2023-02-01T07:38:29;3.80;99.90
4604;DHT22;2314;48.272;11.562;2023-02-01T07:40:57;3.80;99.90
4604;DHT22;2314;48.272;11.562;2023-02-01T07:43:25;3.90;99.90
4604;DHT22;2314;48.272;11.562;2023-02-01T07:45:53;3.90;99.90
4604;DHT22;2314;48.272;11.562;2023-02-01T07:48:21;3.90;99.90
4604;DHT22;2314;48.272;11.562;2023-02-01T07:50:48;3.90;99.90
4604;DHT22;2314;48.272;11.562;2023-02-01T07:53:25;4.00;99.90
4604;DHT22;2314;48.272;11.562;2023-02-01T07:55:55;4.00;99.90
4604;DHT22;2314;48.272;11.562;2023-02-01T07:58:22;4.00;99.90
4604;DHT22;2314;48.272;11.562;2023-02-01T08:00:49;3.90;99.90
4604;DHT22;2314;48.272;11.562;2023-02-01T08:03:34;4.00;99.90
4604;DHT22;2314;48.272;11.562;2023-02-01T08:06:03;4.00;99.90
4604;DHT22;2314;48.272;11.562;2023-02-01T08:08:33;4.10;99.90
4604;DHT22;2314;48.272;11.562;2023-02-01T08:11:01;4.10;99.90
4604;DHT22;2314;48.272;11.562;2023-02-01T08:13:30;4.10;99.90
4604;DHT22;2314;48.272;11.562;2023-02-01T08:15:58;4.20;99.90
4604;DHT22;2314;48.272;11.562;2023-02-01T08:18:25;4.20;99.90
4604;DHT22;2314;48.272;11.562;2023-02-01T08:20:53;4.30;99.90
4604;DHT22;2314;48.272;11.562;2023-02-01T08:23:20;4.30;99.90
4604;DHT22;2314;48.272;11.562;2023-02-01T08:25:49;4.30;99.90
4604;DHT22;2314;48.272;11.562;2023-02-01T08:28:16;4.30;99.90
4604;DHT22;2314;48.272;11.562;2023-02-01T08:30:43;4.30;99.90
4604;DHT22;2314;48.272;11.562;2023-02-01T08:33:10;4.40;99.90
4604;DHT22;2314;48.272;11.562;2023-02-01T08:35:38;4.40;99.90
4604;DHT22;2314;48.272;11.562;2023-02-01T08:38:05;4.40;99.90
4604;DHT22;2314;48.272;11.562;2023-02-01T08:40:32;4.50;99.90
4604;DHT22;2314;48.272;11.562;2023-02-01T08:43:01;4.50;99.90
4604;DHT22;2314;48.272;11.562;2023-02-01T08:45:29;4.50;99.90
4604;DHT22;2314;48.272;11.562;2023-02-01T08:47:57;4.50;99.90
4604;DHT22;2314;48.272;11.562;2023-02-01T08:50:25;4.60;99.90
4604;DHT22;2314;48.272;11.562;2023-02-01T08:52:52;4.60;99.90
4604;DHT22;2314;48.272;11.562;2023-02-01T08:55:20;4.70;99.90
4604;DHT22;2314;48.272;11.562;2023-02-01T08:57:47;4.70;99.90
4604;DHT22;2314;48.272;11.562;2023-02-01T09:00:17;4.70;99.90
4604;DHT22;2314;48.272;11.562;2023-02-01T09:02:45;4.80;99.90
4604;DHT22;2314;48.272;11.562;2023-02-01T09:05:13;4.70;99.90
4604;DHT22;2314;48.272;11.562;2023-02-01T09:07:42;4.70;99.90
4604;DHT22;2314;48.272;11.562;2023-02-01T09:10:10;4.70;99.90
4604;DHT22;2314;48.272;11.562;2023-02-01T09:12:37;4.70;99.90
4604;DHT22;2314;48.272;11.562;2023-02-01T09:15:06;4.70;99.90
4604;DHT22;2314;48.272;11.562;2023-02-01T09:17:35;4.80;99.90
4604;DHT22;2314;48.272;11.562;2023-02-01T09:20:03;4.80;99.90
4604;DHT22;2314;48.272;11.562;2023-02-01T09:22:31;4.80;99.90
4604;DHT22;2314;48.272;11.562;2023-02-01T09:24:58;4.90;99.90
4604;DHT22;2314;48.272;11.562;2023-02-01T09:27:31;5.00;99.90
4604;DHT22;2314;48.272;11.562;2023-02-01T09:29:58;5.00;99.90
4604;DHT22;2314;48.272;11.562;2023-02-01T09:32:25;5.10;99.90
4604;DHT22;2314;48.272;11.562;2023-02-01T09:34:54;5.20;99.90
4604;DHT22;2314;48.272;11.562;2023-02-01T09:37:21;5.40;99.90
4604;DHT22;2314;48.272;11.562;2023-02-01T09:39:48;5.40;99.90
4604;DHT22;2314;48.272;11.562;2023-02-01T09:42:21;5.30;99.90
4604;DHT22;2314;48.272;11.562;2023-02-01T09:45:10;5.20;99.90
4604;DHT22;2314;48.272;11.562;2023-02-01T09:47:46;5.20;99.90
4604;DHT22;2314;48.272;11.562;2023-02-01T09:50:20;5.20;99.90
4604;DHT22;2314;48.272;11.562;2023-02-01T09:52:55;5.20;99.90
4604;DHT22;2314;48.272;11.562;2023-02-01T09:55:32;5.20;99.90
4604;DHT22;2314;48.272;11.562;2023-02-01T09:58:06;5.20;99.90
4604;DHT22;2314;48.272;11.562;2023-02-01T10:00:38;5.10;99.90
4604;DHT22;2314;48.272;11.562;2023-02-01T10:03:11;5.20;99.90
4604;DHT22;2314;48.272;11.562;2023-02-01T10:05:54;5.10;99.90
4604;DHT22;2314;48.272;11.562;2023-02-01T10:08:39;5.10;99.90
4604;DHT22;2314;48.272;11.562;2023-02-01T10:11:27;5.00;99.90
4604;DHT22;2314;48.272;11.562;2023-02-01T10:14:21;5.00;99.90
4604;DHT22;2314;48.272;11.562;2023-02-01T10:17:03;5.00;99.90
4604;DHT22;2314;48.272;11.562;2023-02-01T10:19:44;5.00;99.90
4604;DHT22;2314;48.272;11.562;2023-02-01T10:22:26;5.10;99.90
4604;DHT22;2314;48.272;11.562;2023-02-01T10:25:05;5.10;99.90
4604;DHT22;2314;48.272;11.562;2023-02-01T10:27:36;5.10;99.90
4604;DHT22;2314;48.272;11.562;2023-02-01T10:30:15;5.10;99.90
4604;DHT22;2314;48.272;11.562;2023-02-01T10:32:45;5.00;99.90
4604;DHT22;2314;48.272;11.562;2023-02-01T10:35:24;5.00;99.90
4604;DHT22;2314;48.272;11.562;2023-02-01T10:37:58;4.90;99.90
4604;DHT22;2314;48.272;11.562;2023-02-01T10:40:27;5.00;99.90
4604;DHT22;2314;48.272;11.562;2023-02-01T10:42:57;5.00;99.90
4604;DHT22;2314;48.272;11.562;2023-02-01T10:45:28;5.00;99.90
4604;DHT22;2314;48.272;11.562;2023-02-01T10:47:58;5.00;99.90
4604;DHT22;2314;48.272;11.562;2023-02-01T10:50:34;5.00;99.90
4604;DHT22;2314;48.272;11.562;2023-02-01T10:53:10;5.00;99.90
4604;DHT22;2314;48.272;11.562;2023-02-01T10:55:40;5.00;99.90
4604;DHT22;2314;48.272;11.562;2023-02-01T10:58:15;5.00;99.90
4604;DHT22;2314;48.272;11.562;2023-02-01T11:00:47;5.00;99.90
4604;DHT22;2314;48.272;11.562;2023-02-01T11:03:37;5.00;99.90
4604;DHT22;2314;48.272;11.562;2023-02-01T11:06:24;4.90;99.90
4604;DHT22;2314;48.272;11.562;2023-02-01T11:08:56;4.90;99.90
4604;DHT22;2314;48.272;11.562;2023-02-01T11:11:24;4.90;99.90
4604;DHT22;2314;48.272;11.562;2023-02-01T11:13:54;4.90;99.90
4604;DHT22;2314;48.272;11.562;2023-02-01T11:16:29;5.00;99.90
4604;DHT22;2314;48.272;11.562;2023-02-01T11:18:59;5.00;99.90
4604;DHT22;2314;48.272;11.562;2023-02-01T11:21:26;5.00;99.90
4604;DHT22;2314;48.272;11.562;2023-02-01T11:23:55;5.00;99.90
4604;DHT22;2314;48.272;11.562;2023-02-01T11:26:27;4.90;99.90
4604;DHT22;2314;48.272;11.562;2023-02-01T11:28:58;4.90;99.90
4604;DHT22;2314;48.272;11.562;2023-02-01T11:31:28;4.80;99.90
4604;DHT22;2314;48.272;11.562;2023-02-01T11:33:58;4.80;99.90
4604;DHT22;2314;48.272;11.562;2023-02-01T11:36:30;4.80;99.90
4604;DHT22;2314;48.272;11.562;2023-02-01T11:39:18;4.80;99.90
4604;DHT22;2314;48.272;11.562;2023-02-01T11:41:59;4.80;99.90
4604;DHT22;2314;48.272;11.562;2023-02-01T11:44:33;4.80;99.90
4604;DHT22;2314;48.272;11.562;2023-02-01T11:47:23;4.80;99.90
4604;DHT22;2314;48.272;11.562;2023-02-01T11:49:53;4.80;99.90
4604;DHT22;2314;48.272;11.562;2023-02-01T11:52:32;4.90;99.90
4604;DHT22;2314;48.272;11.562;2023-02-01T11:55:24;4.90;99.90
4604;DHT22;2314;48.272;11.562;2023-02-01T11:58:09;4.90;99.90
4604;DHT22;2314;48.272;11.562;2023-02-01T12:00:54;4.90;99.90
4604;DHT22;2314;48.272;11.562;2023-02-01T12:06:40;4.80;99.90
4604;DHT22;2314;48.272;11.562;2023-02-01T12:12:21;4.80;99.90
4604;DHT22;2314;48.272;11.562;2023-02-01T12:15:03;4.80;99.90
4604;DHT22;2314;48.272;11.562;2023-02-01T12:18:01;4.80;99.90
4604;DHT22;2314;48.272;11.562;2023-02-01T12:21:03;4.70;99.90
4604;DHT22;2314;48.272;11.562;2023-02-01T12:23:41;4.70;99.90
4604;DHT22;2314;48.272;11.562;2023-02-01T12:29:37;4.70;99.90
4604;DHT22;2314;48.272;11.562;2023-02-01T12:32:25;4.70;99.90
4604;DHT22;2314;48.272;11.562;2023-02-01T12:35:13;4.70;99.90
4604;DHT22;2314;48.272;11.562;2023-02-01T12:38:17;4.70;99.90
4604;DHT22;2314;48.272;11.562;2023-02-01T12:41:09;4.70;99.90
4604;DHT22;2314;48.272;11.562;2023-02-01T12:43:54;4.60;99.90
4604;DHT22;2314;48.272;11.562;2023-02-01T12:46:29;4.60;99.90
4604;DHT22;2314;48.272;11.562;2023-02-01T12:49:01;4.60;99.90
4604;DHT22;2314;48.272;11.562;2023-02-01T12:51:35;4.60;99.90
4604;DHT22;2314;48.272;11.562;2023-02-01T12:54:06;4.60;99.90
4604;DHT22;2314;48.272;11.562;2023-02-01T12:56:44;4.60;99.90
4604;DHT22;2314;48.272;11.562;2023-02-01T12:59:21;4.60;99.90
4604;DHT22;2314;48.272;11.562;2023-02-01T13:01:55;4.70;99.90
4604;DHT22;2314;48.272;11.562;2023-02-01T13:04:33;4.70;99.90
4604;DHT22;2314;48.272;11.562;2023-02-01T13:07:07;4.80;99.90
4604;DHT22;2314;48.272;11.562;2023-02-01T13:09:41;4.80;99.90
4604;DHT22;2314;48.272;11.562;2023-02-01T13:12:15;4.80;99.90
4604;DHT22;2314;48.272;11.562;2023-02-01T13:14:46;4.80;99.90
4604;DHT22;2314;48.272;11.562;2023-02-01T13:17:21;4.90;99.90
4604;DHT22;2314;48.272;11.562;2023-02-01T13:19:53;4.90;99.90
4604;DHT22;2314;48.272;11.562;2023-02-01T13:22:26;4.90;99.90
4604;DHT22;2314;48.272;11.562;2023-02-01T13:24:57;4.90;99.90
4604;DHT22;2314;48.272;11.562;2023-02-01T13:27:28;5.00;99.90
4604;DHT22;2314;48.272;11.562;2023-02-01T13:29:59;4.90;99.90
4604;DHT22;2314;48.272;11.562;2023-02-01T13:32:57;4.90;99.90
4604;DHT22;2314;48.272;11.562;2023-02-01T13:42:03;4.90;99.90
4604;DHT22;2314;48.272;11.562;2023-02-01T13:44:37;4.90;99.90
4604;DHT22;2314;48.272;11.562;2023-02-01T13:47:28;4.90;99.90
4604;DHT22;2314;48.272;11.562;2023-02-01T13:50:02;4.90;99.90
4604;DHT22;2314;48.272;11.562;2023-02-01T13:52:37;5.00;99.90
4604;DHT22;2314;48.272;11.562;2023-02-01T13:55:23;5.00;99.90
4604;DHT22;2314;48.272;11.562;2023-02-01T13:58:00;4.90;99.90
4604;DHT22;2314;48.272;11.562;2023-02-01T14:00:34;4.90;99.90
4604;DHT22;2314;48.272;11.562;2023-02-01T14:03:14;4.80;99.90
4604;DHT22;2314;48.272;11.562;2023-02-01T14:09:18;4.80;99.90
4604;DHT22;2314;48.272;11.562;2023-02-01T14:11:48;4.70;99.90
4604;DHT22;2314;48.272;11.562;2023-02-01T14:14:44;4.70;99.90
4604;DHT22;2314;48.272;11.562;2023-02-01T14:17:38;4.70;99.90
4604;DHT22;2314;48.272;11.562;2023-02-01T14:23:23;4.50;99.90
4604;DHT22;2314;48.272;11.562;2023-02-01T14:26:12;4.40;99.90
4604;DHT22;2314;48.272;11.562;2023-02-01T14:28:49;4.40;99.90
4604;DHT22;2314;48.272;11.562;2023-02-01T14:31:44;4.30;99.90
4604;DHT22;2314;48.272;11.562;2023-02-01T14:34:23;4.30;99.90
4604;DHT22;2314;48.272;11.562;2023-02-01T14:36:57;4.30;99.90
4604;DHT22;2314;48.272;11.562;2023-02-01T14:39:34;4.30;99.90
4604;DHT22;2314;48.272;11.562;2023-02-01T14:42:14;4.20;99.90
4604;DHT22;2314;48.272;11.562;2023-02-01T14:44:47;4.20;99.90
4604;DHT22;2314;48.272;11.562;2023-02-01T14:47:33;4.20;99.90
4604;DHT22;2314;48.272;11.562;2023-02-01T14:50:29;4.20;99.90
4604;DHT22;2314;48.272;11.562;2023-02-01T14:53:18;4.10;99.90
4604;DHT22;2314;48.272;11.562;2023-02-01T14:55:52;4.20;99.90
4604;DHT22;2314;48.272;11.562;2023-02-01T14:58:31;4.20;99.90
4604;DHT22;2314;48.272;11.562;2023-02-01T15:01:04;4.20;99.90
4604;DHT22;2314;48.272;11.562;2023-02-01T15:03:43;4.20;99.90
4604;DHT22;2314;48.272;11.562;2023-02-01T15:06:38;4.20;99.90
4604;DHT22;2314;48.272;11.562;2023-02-01T15:09:09;4.30;99.90
4604;DHT22;2314;48.272;11.562;2023-02-01T15:11:57;4.30;99.90
4604;DHT22;2314;48.272;11.562;2023-02-01T15:14:37;4.20;99.90
4604;DHT22;2314;48.272;11.562;2023-02-01T15:17:19;4.30;99.90
4604;DHT22;2314;48.272;11.562;2023-02-01T15:19:53;4.30;99.90
4604;DHT22;2314;48.272;11.562;2023-02-01T15:22:21;4.30;99.90
4604;DHT22;2314;48.272;11.562;2023-02-01T15:24:53;4.30;99.90
4604;DHT22;2314;48.272;11.562;2023-02-01T15:27:22;4.30;99.90
4604;DHT22;2314;48.272;11.562;2023-02-01T15:29:50;4.40;99.90
4604;DHT22;2314;48.272;11.562;2023-02-01T15:32:35;4.40;99.90
4604;DHT22;2314;48.272;11.562;2023-02-01T15:35:05;4.40;99.90
4604;DHT22;2314;48.272;11.562;2023-02-01T15:37:50;4.40;99.90
4604;DHT22;2314;48.272;11.562;2023-02-01T15:40:21;4.40;99.90
4604;DHT22;2314;48.272;11.562;2023-02-01T15:42:52;4.50;99.90
4604;DHT22;2314;48.272;11.562;2023-02-01T15:45:22;4.50;99.90
4604;DHT22;2314;48.272;11.562;2023-02-01T15:47:53;4.50;99.90
4604;DHT22;2314;48.272;11.562;2023-02-01T15:50:22;4.40;99.90
4604;DHT22;2314;48.272;11.562;2023-02-01T15:52:52;4.40;99.90
4604;DHT22;2314;48.272;11.562;2023-02-01T15:55:23;4.40;99.90
4604;DHT22;2314;48.272;11.562;2023-02-01T15:58:05;4.40;99.90
4604;DHT22;2314;48.272;11.562;2023-02-01T16:00:42;4.30;99.90
4604;DHT22;2314;48.272;11.562;2023-02-01T16:03:26;4.30;99.90
4604;DHT22;2314;48.272;11.562;2023-02-01T16:05:56;4.20;99.90
4604;DHT22;2314;48.272;11.562;2023-02-01T16:08:26;4.20;99.90
4604;DHT22;2314;48.272;11.562;2023-02-01T16:11:00;4.20;99.90
4604;DHT22;2314;48.272;11.562;2023-02-01T16:13:41;4.10;99.90
4604;DHT22;2314;48.272;11.562;2023-02-01T16:16:09;4.10;99.90
4604;DHT22;2314;48.272;11.562;2023-02-01T16:18:39;4.10;99.90
4604;DHT22;2314;48.272;11.562;2023-02-01T16:21:06;4.00;99.90
4604;DHT22;2314;48.272;11.562;2023-02-01T16:23:34;4.00;99.90
4604;DHT22;2314;48.272;11.562;2023-02-01T16:26:01;4.00;99.90
4604;DHT22;2314;48.272;11.562;2023-02-01T16:28:29;4.10;99.90
4604;DHT22;2314;48.272;11.562;2023-02-01T16:30:57;4.00;99.90
4604;DHT22;2314;48.272;11.562;2023-02-01T16:33:25;4.00;99.90
4604;DHT22;2314;48.272;11.562;2023-02-01T16:35:56;4.00;99.90
4604;DHT22;2314;48.272;11.562;2023-02-01T16:38:25;4.00;99.90
4604;DHT22;2314;48.272;11.562;2023-02-01T16:40:53;4.00;99.90
4604;DHT22;2314;48.272;11.562;2023-02-01T16:43:21;3.90;99.90
4604;DHT22;2314;48.272;11.562;2023-02-01T16:45:52;3.90;99.90
4604;DHT22;2314;48.272;11.562;2023-02-01T16:48:23;3.90;99.90
4604;DHT22;2314;48.272;11.562;2023-02-01T16:50:54;3.90;99.90
4604;DHT22;2314;48.272;11.562;2023-02-01T16:53:23;3.90;99.90
4604;DHT22;2314;48.272;11.562;2023-02-01T16:55:53;3.90;99.90
4604;DHT22;2314;48.272;11.562;2023-02-01T16:58:23;4.00;99.90
4604;DHT22;2314;48.272;11.562;2023-02-01T17:00:50;4.00;99.90
4604;DHT22;2314;48.272;11.562;2023-02-01T17:03:19;4.00;99.90
4604;DHT22;2314;48.272;11.562;2023-02-01T17:05:51;4.00;99.90
4604;DHT22;2314;48.272;11.562;2023-02-01T17:08:27;4.00;99.90